createdAt,value
2023-01-26T00:00:02.132Z,251
2023-01-26T00:05:01.531Z,242
2023-01-26T00:10:02.120Z,142
2023-01-26T00:15:01.526Z,231
2023-01-26T00:20:01.965Z,243
2023-01-26T00:25:01.760Z,239
2023-01-26T00:30:02.176Z,258
2023-01-26T00:35:01.562Z,236
2023-01-26T00:40:02.397Z,243
2023-01-26T00:45:01.782Z,155
2023-01-26T00:50:02.286Z,274
2023-01-26T00:55:01.799Z,247
2023-01-26T01:00:02.204Z,249
2023-01-26T01:05:01.644Z,255
2023-01-26T01:10:02.488Z,147
2023-01-26T01:15:01.875Z,147
2023-01-26T01:20:01.443Z,266
2023-01-26T01:25:01.815Z,267
2023-01-26T01:30:02.358Z,254
2023-01-26T01:35:02.151Z,247
2023-01-26T01:40:01.751Z,248
2023-01-26T01:45:02.109Z,250
2023-01-26T01:50:01.646Z,242
2023-01-26T01:55:02.090Z,241
2023-01-26T02:00:01.539Z,247
2023-01-26T02:05:01.913Z,233
2023-01-26T02:10:01.726Z,228
2023-01-26T02:15:02.118Z,217
2023-01-26T02:20:01.546Z,178
2023-01-26T02:25:02.351Z,244
2023-01-26T02:30:01.730Z,246
2023-01-26T02:35:02.316Z,247
2023-01-26T02:40:01.970Z,264
2023-01-26T02:45:01.779Z,251
2023-01-26T02:50:02.129Z,244
2023-01-26T02:55:01.927Z,231
2023-01-26T03:00:01.338Z,249
2023-01-26T03:05:01.681Z,240
2023-01-26T03:10:02.066Z,229
2023-01-26T03:15:01.462Z,243
2023-01-26T03:20:02.058Z,229
2023-01-26T03:25:01.601Z,235
2023-01-26T03:30:02.387Z,264
2023-01-26T03:35:01.763Z,278
2023-01-26T03:40:02.643Z,278
2023-01-26T03:45:02.468Z,235
2023-01-26T03:50:01.968Z,262
2023-01-26T03:55:01.807Z,302
2023-01-26T04:00:02.177Z,261
2023-01-26T04:05:01.716Z,227
2023-01-26T04:10:02.131Z,270
2023-01-26T04:15:01.537Z,267
2023-01-26T04:20:01.969Z,306
2023-01-26T04:25:01.345Z,297
2023-01-26T04:30:01.745Z,339
2023-01-26T04:35:02.523Z,256
2023-01-26T04:40:01.955Z,142
2023-01-26T04:45:01.783Z,236
2023-01-26T04:50:02.124Z,251
2023-01-26T04:55:01.618Z,260
2023-01-26T05:00:02.050Z,242
2023-01-26T05:05:01.917Z,289
2023-01-26T05:10:01.353Z,282
2023-01-26T05:15:01.737Z,304
2023-01-26T05:20:02.178Z,264
2023-01-26T05:25:01.544Z,261
2023-01-26T05:30:01.671Z,263
2023-01-26T05:35:02.169Z,241
2023-01-26T05:40:02.002Z,301
2023-01-26T05:45:01.879Z,316
2023-01-26T05:50:02.668Z,259
2023-01-26T05:55:02.048Z,278
2023-01-26T06:00:01.557Z,267
2023-01-26T06:05:01.939Z,273
2023-01-26T06:10:01.373Z,269
2023-01-26T06:15:01.751Z,239
2023-01-26T06:20:02.633Z,247
2023-01-26T06:25:02.128Z,253
2023-01-26T06:30:01.943Z,242
2023-01-26T06:35:01.483Z,251
2023-01-26T06:40:02.293Z,234
2023-01-26T06:45:01.658Z,248
2023-01-26T06:50:02.430Z,251
2023-01-26T06:55:02.212Z,272
2023-01-26T07:00:01.592Z,235
2023-01-26T07:05:02.382Z,245
2023-01-26T07:10:01.800Z,284
2023-01-26T07:15:02.597Z,154
2023-01-26T07:20:02.487Z,151
2023-01-26T07:25:01.978Z,267
2023-01-26T07:30:01.574Z,268
2023-01-26T07:35:01.978Z,153
2023-01-26T07:40:01.566Z,138
2023-01-26T07:45:01.948Z,275
2023-01-26T07:50:01.374Z,245
2023-01-26T07:55:01.714Z,260
2023-01-26T08:00:02.520Z,227
2023-01-26T08:05:02.095Z,246
2023-01-26T08:10:01.536Z,192
2023-01-26T08:15:01.936Z,221
2023-01-26T08:20:01.546Z,201
2023-01-26T08:25:02.103Z,224
2023-01-26T08:30:01.910Z,209
2023-01-26T08:35:02.304Z,252
2023-01-26T08:40:02.162Z,243
2023-01-26T08:45:01.566Z,208
2023-01-26T08:50:02.349Z,241
2023-01-26T08:55:02.168Z,251
2023-01-26T09:00:02.031Z,248
2023-01-26T09:05:02.045Z,217
2023-01-26T09:10:01.956Z,205
2023-01-26T09:15:01.813Z,210
2023-01-26T09:20:01.857Z,190
2023-01-26T09:25:02.654Z,222
2023-01-26T09:30:02.251Z,2
2023-01-26T09:35:01.647Z,3
2023-01-26T09:40:02.258Z,2
2023-01-26T09:45:02.055Z,2
2023-01-26T09:50:01.491Z,3
2023-01-26T09:55:02.051Z,2
2023-01-26T10:00:01.462Z,2
2023-01-26T10:05:02.088Z,2
2023-01-26T10:10:01.917Z,12
2023-01-26T10:15:02.717Z,10
2023-01-26T10:20:02.604Z,8
2023-01-26T10:25:02.154Z,6
2023-01-26T10:30:01.657Z,5
2023-01-26T10:35:02.321Z,4
2023-01-26T10:40:01.883Z,3
2023-01-26T10:45:02.307Z,4
2023-01-26T10:50:02.102Z,3
2023-01-26T10:55:01.478Z,4
2023-01-26T11:00:02.301Z,3
2023-01-26T11:05:01.856Z,3
2023-01-26T11:10:01.393Z,3
2023-01-26T11:15:02.262Z,3
2023-01-26T11:20:02.179Z,3
2023-01-26T11:25:01.975Z,2
2023-01-26T11:30:01.465Z,1
2023-01-26T11:35:02.251Z,2
2023-01-26T11:40:02.105Z,2
2023-01-26T11:45:01.627Z,2
2023-01-26T11:50:02.010Z,2
2023-01-26T11:55:01.826Z,1
2023-01-26T12:00:02.334Z,2
2023-01-26T12:05:02.127Z,2
2023-01-26T12:10:01.575Z,2
2023-01-26T12:15:03.713Z,1
2023-01-26T12:20:02.245Z,1
2023-01-26T12:25:18.681Z,2
2023-01-26T12:30:02.026Z,2
2023-01-26T12:35:01.384Z,1
2023-01-26T12:40:01.831Z,1
2023-01-26T12:45:02.498Z,1
2023-01-26T12:50:02.088Z,1
2023-01-26T12:55:01.913Z,1
2023-01-26T13:00:02.725Z,1
2023-01-26T13:05:02.554Z,1
2023-01-26T13:10:02.112Z,3
2023-01-26T13:15:01.704Z,2
2023-01-26T13:20:02.559Z,1
2023-01-26T13:25:02.365Z,1
2023-01-26T13:30:01.903Z,1
2023-01-26T13:35:05.606Z,1
2023-01-26T13:40:02.332Z,1
2023-01-26T13:45:02.173Z,1
2023-01-26T13:50:01.709Z,1
2023-01-26T13:55:02.509Z,1
2023-01-26T14:00:02.314Z,1
2023-01-26T14:05:01.811Z,0
2023-01-26T14:10:02.528Z,1
2023-01-26T14:15:01.962Z,1
2023-01-26T14:20:01.590Z,1
2023-01-26T14:25:02.399Z,1
2023-01-26T14:30:01.800Z,1
2023-01-26T14:35:02.292Z,0
2023-01-26T14:40:01.704Z,1
2023-01-26T14:45:02.069Z,1
2023-01-26T14:50:01.591Z,0
2023-01-26T14:55:02.410Z,0
2023-01-26T15:00:02.234Z,0
2023-01-26T15:05:01.740Z,1
2023-01-26T15:10:02.626Z,0
2023-01-26T15:15:02.165Z,0
2023-01-26T15:20:02.137Z,0
2023-01-26T15:25:01.988Z,0
2023-01-26T15:30:01.400Z,0
2023-01-26T15:35:02.190Z,1
2023-01-26T15:40:01.621Z,1
2023-01-26T15:45:02.446Z,0
2023-01-26T15:50:01.997Z,0
2023-01-26T15:55:01.395Z,1
2023-01-26T16:00:01.806Z,0
2023-01-26T16:05:02.662Z,0
2023-01-26T16:10:02.245Z,0
2023-01-26T16:15:01.644Z,0
2023-01-26T16:20:02.528Z,0
2023-01-26T16:25:01.890Z,0
2023-01-26T16:30:02.678Z,0
2023-01-26T16:35:02.483Z,0
2023-01-26T16:40:02.010Z,0
2023-01-26T16:45:01.543Z,1
2023-01-26T16:50:01.918Z,0
2023-01-26T16:55:02.731Z,0
2023-01-26T17:00:02.138Z,0
2023-01-26T17:05:01.700Z,0
2023-01-26T17:10:02.235Z,0
2023-01-26T17:15:02.058Z,1
2023-01-26T17:20:17.590Z,0
2023-01-26T17:25:01.721Z,0
2023-01-26T17:30:02.078Z,0
2023-01-26T17:35:01.578Z,0
2023-01-26T17:40:02.108Z,0
2023-01-26T17:45:01.610Z,0
2023-01-26T17:50:01.995Z,0
2023-01-26T17:55:01.780Z,0
2023-01-26T18:00:02.295Z,0
2023-01-26T18:05:02.227Z,0
2023-01-26T18:10:01.693Z,0
2023-01-26T18:15:02.514Z,1
2023-01-26T18:20:01.979Z,0
2023-01-26T18:25:01.337Z,0
2023-01-26T18:30:01.706Z,0
2023-01-26T18:35:02.091Z,0
2023-01-26T18:40:01.941Z,1
2023-01-26T18:45:01.544Z,0
2023-01-26T18:50:01.938Z,0
2023-01-26T18:55:02.749Z,0
2023-01-26T19:00:02.259Z,0
2023-01-26T19:05:01.646Z,0
2023-01-26T19:10:02.094Z,0
2023-01-26T19:15:01.890Z,0
2023-01-26T19:20:01.452Z,0
2023-01-26T19:25:02.266Z,0
2023-01-26T19:30:01.673Z,1
2023-01-26T19:35:02.177Z,0
2023-01-26T19:40:01.620Z,0
2023-01-26T19:45:02.121Z,0
2023-01-26T19:50:01.508Z,1
2023-01-26T19:55:02.368Z,0
2023-01-26T20:00:02.206Z,0
2023-01-26T20:05:02.014Z,1
2023-01-26T20:10:01.818Z,0
2023-01-26T20:15:02.231Z,1
2023-01-26T20:20:01.850Z,1
2023-01-26T20:25:02.336Z,0
2023-01-26T20:30:02.199Z,0
2023-01-26T20:35:02.004Z,1
2023-01-26T20:40:01.839Z,0
2023-01-26T20:45:02.632Z,1
2023-01-26T20:50:02.107Z,1
2023-01-26T20:55:01.916Z,0
2023-01-26T21:00:02.391Z,0
2023-01-26T21:05:02.212Z,0
2023-01-26T21:10:01.793Z,0
2023-01-26T21:15:02.269Z,0
2023-01-26T21:20:02.142Z,1
2023-01-26T21:25:01.526Z,0
2023-01-26T21:30:02.336Z,0
2023-01-26T21:35:02.163Z,0
2023-01-26T21:40:01.683Z,0
2023-01-26T21:45:02.083Z,0
2023-01-26T21:50:01.858Z,0
2023-01-26T21:55:02.414Z,0
2023-01-26T22:00:01.949Z,0
2023-01-26T22:05:02.054Z,0
2023-01-26T22:10:01.608Z,1
2023-01-26T22:15:02.005Z,1
2023-01-26T22:20:02.295Z,0
2023-01-26T22:25:01.678Z,1
2023-01-26T22:30:02.229Z,0
2023-01-26T22:35:01.605Z,0
2023-01-26T22:40:02.433Z,0
2023-01-26T22:45:01.857Z,0
2023-01-26T22:50:02.435Z,0
2023-01-26T22:55:01.967Z,1
2023-01-26T23:00:01.664Z,1
2023-01-26T23:05:01.919Z,1
2023-01-26T23:10:01.474Z,1
2023-01-26T23:15:02.035Z,0
2023-01-26T23:20:03.356Z,0
2023-01-26T23:25:01.760Z,1
2023-01-26T23:30:03.498Z,1
2023-01-26T23:35:02.446Z,1
2023-01-26T23:40:01.847Z,0
2023-01-26T23:45:02.637Z,0
2023-01-26T23:50:02.005Z,0
2023-01-26T23:55:01.542Z,1
